createdAt,value
2019-05-22T00:01:10.598Z,21.17
2019-05-22T00:03:51.319Z,20.83
2019-05-22T00:06:26.926Z,20.43
2019-05-22T00:08:59.738Z,22.07
2019-05-22T00:11:28.778Z,24.53
2019-05-22T00:13:59.085Z,22.73
2019-05-22T00:16:30.608Z,22.90
2019-05-22T00:18:58.645Z,21.00
2019-05-22T00:21:27.074Z,23.17
2019-05-22T00:23:54.709Z,24.80
2019-05-22T00:26:25.668Z,22.87
2019-05-22T00:28:56.972Z,21.00
2019-05-22T00:31:26.495Z,22.23
2019-05-22T00:33:55.488Z,21.77
2019-05-22T00:36:23.758Z,20.87
2019-05-22T00:38:54.070Z,18.80
2019-05-22T00:41:23.849Z,20.13
2019-05-22T00:43:52.562Z,20.77
2019-05-22T00:46:22.448Z,20.50
2019-05-22T00:48:51.701Z,21.10
2019-05-22T00:51:37.512Z,19.37
2019-05-22T00:54:33.735Z,20.93
2019-05-22T00:57:10.569Z,21.23
2019-05-22T00:59:42.213Z,20.50
2019-05-22T01:02:13.696Z,19.87
2019-05-22T01:04:42.983Z,19.30
2019-05-22T01:07:17.790Z,21.07
2019-05-22T01:09:47.797Z,20.40
2019-05-22T01:12:29.066Z,23.50
2019-05-22T01:15:03.055Z,20.20
2019-05-22T01:17:35.867Z,25.10
2019-05-22T01:20:09.761Z,26.47
2019-05-22T01:22:41.611Z,21.73
2019-05-22T01:25:14.272Z,22.07
2019-05-22T01:27:42.376Z,24.87
2019-05-22T01:30:18.815Z,23.83
2019-05-22T01:32:50.752Z,21.40
2019-05-22T01:35:28.919Z,22.77
2019-05-22T01:37:57.452Z,20.83
2019-05-22T01:40:36.271Z,23.30
2019-05-22T01:43:08.592Z,22.57
2019-05-22T01:45:38.449Z,20.10
2019-05-22T01:48:13.480Z,21.03
2019-05-22T01:50:54.895Z,23.70
2019-05-22T01:53:26.463Z,22.87
2019-05-22T01:55:58.497Z,21.03
2019-05-22T01:58:27.854Z,23.37
2019-05-22T02:00:57.294Z,20.70
2019-05-22T02:03:27.484Z,23.10
2019-05-22T02:05:55.135Z,23.80
2019-05-22T02:08:25.484Z,23.03
2019-05-22T02:10:57.453Z,22.50
2019-05-22T02:13:30.443Z,21.77
2019-05-22T02:15:58.506Z,21.27
2019-05-22T02:18:27.382Z,27.50
2019-05-22T02:20:55.498Z,23.37
2019-05-22T02:23:24.548Z,23.80
2019-05-22T02:25:53.440Z,26.53
2019-05-22T02:28:22.280Z,23.40
2019-05-22T02:30:53.502Z,24.47
2019-05-22T02:33:24.363Z,24.77
2019-05-22T02:35:55.775Z,23.90
2019-05-22T02:38:25.456Z,22.20
2019-05-22T02:40:54.852Z,23.37
2019-05-22T02:43:24.096Z,21.47
2019-05-22T02:45:52.388Z,22.03
2019-05-22T02:48:32.238Z,22.43
2019-05-22T02:51:01.535Z,22.10
2019-05-22T02:53:29.626Z,24.77
2019-05-22T02:55:57.995Z,21.33
2019-05-22T02:58:29.203Z,22.73
2019-05-22T03:01:01.220Z,22.13
2019-05-22T03:03:30.744Z,22.00
2019-05-22T03:05:59.231Z,22.10
2019-05-22T03:08:53.554Z,23.30
2019-05-22T03:11:21.822Z,23.97
2019-05-22T03:13:59.099Z,21.73
2019-05-22T03:16:34.916Z,24.30
2019-05-22T03:19:08.809Z,21.23
2019-05-22T03:21:35.927Z,23.77
2019-05-22T03:24:04.317Z,20.90
2019-05-22T03:26:46.179Z,22.30
2019-05-22T03:29:14.706Z,21.07
2019-05-22T03:31:44.154Z,21.63
2019-05-22T03:34:12.784Z,22.43
2019-05-22T03:36:40.812Z,22.60
2019-05-22T03:39:10.328Z,22.27
2019-05-22T03:41:40.988Z,23.20
2019-05-22T03:44:11.018Z,21.93
2019-05-22T03:46:43.982Z,19.80
2019-05-22T03:49:29.208Z,24.40
2019-05-22T03:51:47.151Z,20.47
2019-05-22T03:54:35.390Z,23.03
2019-05-22T03:57:44.600Z,19.20
2019-05-22T04:00:15.465Z,21.83
2019-05-22T04:02:45.130Z,23.10
2019-05-22T04:05:14.124Z,21.53
2019-05-22T04:07:43.046Z,23.90
2019-05-22T04:10:12.755Z,22.73
2019-05-22T04:12:41.021Z,23.93
2019-05-22T04:15:11.193Z,23.23
2019-05-22T04:17:42.030Z,23.03
2019-05-22T04:20:13.419Z,22.60
2019-05-22T04:22:41.343Z,19.60
2019-05-22T04:25:10.245Z,20.17
2019-05-22T04:27:37.915Z,20.80
2019-05-22T04:30:15.322Z,19.47
2019-05-22T04:32:43.961Z,19.93
2019-05-22T04:35:14.874Z,18.57
2019-05-22T04:37:42.733Z,19.70
2019-05-22T04:40:53.725Z,20.97
2019-05-22T04:43:24.553Z,20.57
2019-05-22T04:45:54.506Z,20.07
2019-05-22T04:48:48.183Z,17.83
2019-05-22T04:51:55.947Z,17.83
2019-05-22T04:54:26.711Z,16.03
2019-05-22T04:56:55.278Z,17.10
2019-05-22T04:59:26.272Z,15.43
2019-05-22T05:01:54.771Z,14.57
2019-05-22T05:04:26.385Z,16.30
2019-05-22T05:07:16.458Z,15.27
2019-05-22T05:09:56.877Z,14.77
2019-05-22T05:12:56.041Z,13.77
2019-05-22T05:15:22.458Z,13.70
2019-05-22T05:17:52.823Z,13.10
2019-05-22T05:20:22.899Z,15.27
2019-05-22T05:25:41.403Z,12.93
2019-05-22T05:28:11.278Z,13.53
2019-05-22T05:31:08.710Z,19.50
2019-05-22T05:34:25.820Z,14.40
2019-05-22T05:36:55.353Z,13.80
2019-05-22T05:40:11.353Z,14.27
2019-05-22T05:46:09.222Z,15.67
2019-05-22T05:48:50.604Z,11.97
2019-05-22T05:51:48.738Z,13.47
2019-05-22T05:54:22.848Z,15.17
2019-05-22T05:57:24.518Z,9.70
2019-05-22T06:04:34.861Z,10.90
2019-05-22T06:07:21.274Z,7.13
2019-05-22T06:13:15.137Z,7.97
2019-05-22T06:16:28.608Z,7.50
2019-05-22T06:18:57.224Z,7.83
2019-05-22T06:24:59.398Z,6.70
2019-05-22T06:28:01.393Z,5.93
2019-05-22T06:30:49.582Z,7.07
2019-05-22T06:33:48.560Z,6.43
2019-05-22T06:36:35.755Z,5.70
2019-05-22T06:39:11.860Z,5.67
2019-05-22T06:49:47.573Z,5.33
2019-05-22T06:52:21.619Z,5.83
2019-05-22T06:55:10.934Z,9.10
2019-05-22T06:57:40.801Z,5.50
2019-05-22T07:00:22.773Z,6.70
2019-05-22T07:02:51.070Z,7.13
2019-05-22T07:05:32.745Z,8.47
2019-05-22T07:08:25.802Z,8.40
2019-05-22T07:10:55.879Z,6.77
2019-05-22T07:14:48.472Z,5.83
2019-05-22T07:17:36.449Z,6.57
2019-05-22T07:20:08.163Z,5.40
2019-05-22T07:22:42.686Z,6.27
2019-05-22T07:25:19.358Z,5.67
2019-05-22T07:27:48.149Z,6.17
2019-05-22T07:34:48.101Z,6.77
2019-05-22T07:37:23.139Z,6.07
2019-05-22T07:40:11.234Z,5.50
2019-05-22T07:42:52.140Z,8.33
2019-05-22T07:45:13.677Z,7.23
2019-05-22T07:47:42.507Z,8.37
2019-05-22T07:54:38.809Z,6.30
2019-05-22T08:08:58.774Z,6.37
2019-05-22T08:11:39.555Z,6.97
2019-05-22T08:15:14.479Z,5.40
2019-05-22T08:22:41.157Z,6.00
2019-05-22T08:25:36.698Z,7.13
2019-05-22T08:28:42.430Z,6.10
2019-05-22T08:35:50.937Z,6.10
2019-05-22T08:41:45.590Z,6.70
2019-05-22T08:44:17.281Z,7.90
2019-05-22T08:46:45.256Z,8.97
2019-05-22T08:49:14.322Z,7.23
2019-05-22T08:51:42.445Z,7.17
2019-05-22T08:54:49.345Z,6.30
2019-05-22T08:57:30.948Z,6.73
2019-05-22T09:00:01.233Z,9.73
2019-05-22T09:02:31.326Z,7.47
2019-05-22T09:04:59.292Z,7.50
2019-05-22T09:07:30.249Z,7.47
2019-05-22T09:10:01.922Z,7.63
2019-05-22T09:12:29.872Z,7.90
2019-05-22T09:15:09.982Z,7.77
2019-05-22T09:17:43.965Z,10.47
2019-05-22T09:20:13.900Z,9.97
2019-05-22T09:22:43.096Z,8.77
2019-05-22T09:25:18.775Z,8.53
2019-05-22T09:31:11.318Z,7.77
2019-05-22T09:34:37.463Z,7.73
2019-05-22T09:40:55.479Z,6.17
2019-05-22T09:43:27.309Z,5.43
2019-05-22T09:46:31.902Z,5.60
2019-05-22T09:53:11.414Z,10.20
2019-05-22T09:56:35.135Z,4.70
2019-05-22T09:59:02.760Z,3.70
2019-05-22T10:02:02.844Z,3.60
2019-05-22T10:04:34.053Z,4.17
2019-05-22T10:07:12.197Z,3.63
2019-05-22T10:09:42.712Z,4.07
2019-05-22T10:12:21.393Z,6.73
2019-05-22T10:15:20.488Z,3.63
2019-05-22T10:18:18.359Z,5.03
2019-05-22T10:21:16.892Z,4.73
2019-05-22T10:23:57.184Z,3.17
2019-05-22T10:27:40.481Z,4.10
2019-05-22T10:30:43.987Z,3.97
2019-05-22T10:34:21.864Z,2.30
2019-05-22T10:36:52.289Z,2.30
2019-05-22T10:39:27.974Z,2.27
2019-05-22T10:42:32.718Z,2.10
2019-05-22T10:45:01.762Z,4.83
2019-05-22T10:47:47.068Z,2.10
2019-05-22T10:50:46.483Z,4.77
2019-05-22T11:00:16.603Z,3.63
2019-05-22T11:03:16.214Z,1.77
2019-05-22T11:06:05.319Z,2.13
2019-05-22T11:09:05.009Z,2.83
2019-05-22T11:16:12.193Z,4.77
2019-05-22T11:19:48.960Z,9.47
2019-05-22T11:22:29.682Z,14.90
2019-05-22T11:25:16.692Z,4.63
2019-05-22T11:27:45.920Z,3.43
2019-05-22T11:30:31.347Z,2.60
2019-05-22T11:33:17.546Z,2.60
2019-05-22T11:36:00.559Z,2.43
2019-05-22T11:38:46.435Z,1.83
2019-05-22T11:41:33.361Z,2.10
2019-05-22T11:44:10.800Z,3.93
2019-05-22T11:46:49.341Z,3.97
2019-05-22T11:53:18.813Z,1.97
2019-05-22T11:55:48.450Z,3.33
2019-05-22T12:05:03.474Z,2.33
2019-05-22T12:07:28.695Z,2.27
2019-05-22T12:10:30.597Z,1.90
2019-05-22T12:13:38.210Z,3.33
2019-05-22T12:16:12.593Z,3.53
2019-05-22T12:22:34.364Z,2.53
2019-05-22T12:25:02.064Z,2.20
2019-05-22T12:27:44.068Z,2.93
2019-05-22T12:30:23.761Z,3.17
2019-05-22T12:32:56.450Z,3.90
2019-05-22T12:35:34.879Z,2.47
2019-05-22T12:38:14.290Z,4.40
2019-05-22T12:40:43.066Z,2.80
2019-05-22T12:43:28.415Z,3.30
2019-05-22T12:46:32.262Z,3.53
2019-05-22T12:49:02.211Z,3.47
2019-05-22T12:51:39.996Z,3.70
2019-05-22T12:54:07.826Z,5.37
2019-05-22T12:56:45.733Z,2.30
2019-05-22T12:59:14.491Z,3.57
2019-05-22T13:01:55.918Z,2.30
2019-05-22T13:04:28.842Z,2.97
2019-05-22T13:07:04.323Z,3.70
2019-05-22T13:09:47.442Z,2.83
2019-05-22T13:12:17.811Z,2.83
2019-05-22T13:14:47.003Z,5.17
2019-05-22T13:17:19.320Z,2.77
2019-05-22T13:20:01.090Z,2.83
2019-05-22T13:22:49.816Z,2.10
2019-05-22T13:32:59.047Z,2.23
2019-05-22T13:35:48.136Z,7.00
2019-05-22T13:38:19.390Z,2.40
2019-05-22T13:40:59.602Z,2.53
2019-05-22T13:43:31.946Z,2.13
2019-05-22T13:46:00.645Z,3.13
2019-05-22T13:49:01.767Z,2.67
2019-05-22T13:51:58.708Z,5.57
2019-05-22T13:54:38.446Z,2.70
2019-05-22T13:58:03.187Z,2.80
2019-05-22T14:00:54.200Z,3.20
2019-05-22T14:07:51.655Z,2.70
2019-05-22T14:13:38.015Z,3.00
2019-05-22T14:16:10.244Z,3.60
2019-05-22T14:19:47.996Z,3.27
2019-05-22T14:22:21.833Z,7.13
2019-05-22T14:25:04.810Z,5.87
2019-05-22T14:31:02.424Z,3.20
2019-05-22T14:33:33.214Z,3.03
2019-05-22T14:36:29.668Z,5.83
2019-05-22T14:39:36.676Z,2.80
2019-05-22T14:43:07.982Z,2.90
2019-05-22T14:45:36.123Z,4.77
2019-05-22T14:48:19.686Z,3.33
2019-05-22T14:51:00.886Z,2.90
2019-05-22T14:53:59.681Z,2.50
2019-05-22T14:56:30.429Z,2.60
2019-05-22T14:59:07.903Z,2.60
2019-05-22T15:05:21.082Z,4.67
2019-05-22T15:08:14.557Z,3.57
2019-05-22T15:10:56.696Z,2.77
2019-05-22T15:13:37.371Z,2.90
2019-05-22T15:16:24.217Z,3.23
2019-05-22T15:18:58.589Z,3.27
2019-05-22T15:21:30.620Z,3.10
2019-05-22T15:24:04.576Z,2.90
2019-05-22T15:26:41.669Z,2.80
2019-05-22T15:29:47.616Z,3.67
2019-05-22T15:32:25.641Z,3.13
2019-05-22T15:35:16.508Z,3.20
2019-05-22T15:38:56.517Z,4.53
2019-05-22T15:42:08.670Z,3.43
2019-05-22T15:45:07.062Z,3.33
2019-05-22T15:50:15.957Z,4.23
2019-05-22T15:53:01.556Z,3.97
2019-05-22T15:55:45.820Z,4.07
2019-05-22T15:58:20.744Z,3.30
2019-05-22T16:01:26.162Z,5.33
2019-05-22T16:03:51.125Z,4.20
2019-05-22T16:06:23.834Z,3.83
2019-05-22T16:09:00.925Z,4.57
2019-05-22T16:11:33.112Z,3.97
2019-05-22T16:14:02.998Z,3.07
2019-05-22T16:20:26.022Z,4.23
2019-05-22T16:22:54.207Z,3.33
2019-05-22T16:28:44.173Z,5.50
2019-05-22T16:31:14.631Z,3.03
2019-05-22T16:34:01.292Z,3.50
2019-05-22T16:36:58.323Z,3.07
2019-05-22T16:40:22.267Z,5.03
2019-05-22T16:42:49.760Z,3.53
2019-05-22T16:45:21.368Z,5.10
2019-05-22T16:47:50.140Z,3.50
2019-05-22T16:50:24.270Z,4.40
2019-05-22T16:53:37.121Z,3.40
2019-05-22T17:00:33.237Z,4.53
2019-05-22T17:04:07.151Z,5.20
2019-05-22T17:06:38.848Z,4.90
2019-05-22T17:09:29.063Z,4.30
2019-05-22T17:12:44.498Z,3.37
2019-05-22T17:15:46.163Z,4.27
2019-05-22T17:18:14.773Z,2.97
2019-05-22T17:20:47.005Z,4.10
2019-05-22T17:23:15.743Z,5.03
2019-05-22T17:25:45.544Z,3.77
2019-05-22T17:28:15.205Z,5.77
2019-05-22T17:41:33.775Z,4.83
2019-05-22T17:44:29.429Z,3.30
2019-05-22T17:47:16.628Z,4.87
2019-05-22T17:50:02.872Z,3.73
2019-05-22T17:52:58.175Z,5.30
2019-05-22T17:56:01.385Z,6.77
2019-05-22T17:58:54.277Z,6.57
2019-05-22T18:02:11.169Z,11.23
2019-05-22T18:04:38.955Z,9.03
2019-05-22T18:07:17.055Z,7.93
2019-05-22T18:09:48.734Z,12.07
2019-05-22T18:12:46.562Z,11.70
2019-05-22T18:18:37.505Z,12.77
2019-05-22T18:21:10.656Z,10.93
2019-05-22T18:23:44.688Z,10.97
2019-05-22T18:26:24.815Z,14.10
2019-05-22T18:29:41.411Z,9.77
2019-05-22T18:36:00.304Z,9.77
2019-05-22T18:38:27.885Z,10.53
2019-05-22T18:40:55.862Z,13.00
2019-05-22T18:44:48.938Z,19.73
2019-05-22T18:48:27.757Z,15.70
2019-05-22T18:50:55.586Z,10.27
2019-05-22T18:53:40.170Z,9.80
2019-05-22T18:56:54.480Z,11.13
2019-05-22T19:03:19.133Z,6.67
2019-05-22T19:06:02.024Z,11.57
2019-05-22T19:09:15.184Z,8.17
2019-05-22T19:12:08.350Z,6.93
2019-05-22T19:14:39.959Z,6.23
2019-05-22T19:17:28.634Z,6.43
2019-05-22T19:24:02.282Z,5.40
2019-05-22T19:27:03.997Z,4.60
2019-05-22T19:29:32.151Z,4.67
2019-05-22T19:32:00.979Z,7.10
2019-05-22T19:34:35.021Z,5.50
2019-05-22T19:37:02.942Z,9.47
2019-05-22T19:39:38.016Z,4.23
2019-05-22T19:42:08.260Z,6.13
2019-05-22T19:44:41.885Z,5.53
2019-05-22T19:47:39.458Z,9.50
2019-05-22T19:50:23.382Z,16.47
2019-05-22T19:52:53.395Z,9.17
2019-05-22T19:55:25.961Z,6.87
2019-05-22T19:57:57.037Z,6.40
2019-05-22T20:00:25.083Z,5.13
2019-05-22T20:02:54.339Z,5.87
2019-05-22T20:05:25.886Z,5.70
2019-05-22T20:07:57.581Z,6.90
2019-05-22T20:10:46.414Z,10.13
2019-05-22T20:16:38.125Z,8.43
2019-05-22T20:19:28.497Z,7.33
2019-05-22T20:22:04.365Z,10.03
2019-05-22T20:24:34.667Z,8.83
2019-05-22T20:27:04.507Z,7.37
2019-05-22T20:29:45.203Z,7.13
2019-05-22T20:32:49.249Z,8.43
2019-05-22T20:35:31.268Z,10.20
2019-05-22T20:38:15.672Z,8.97
2019-05-22T20:40:50.342Z,6.90
2019-05-22T20:43:22.463Z,6.70
2019-05-22T20:45:54.894Z,7.60
2019-05-22T20:48:29.429Z,7.40
2019-05-22T20:50:59.511Z,6.77
2019-05-22T20:53:32.124Z,7.47
2019-05-22T20:56:05.793Z,7.03
2019-05-22T20:58:35.927Z,8.37
2019-05-22T21:01:12.918Z,9.20
2019-05-22T21:03:44.483Z,7.87
2019-05-22T21:06:19.387Z,9.07
2019-05-22T21:08:49.578Z,6.97
2019-05-22T21:11:29.614Z,9.53
2019-05-22T21:14:07.554Z,8.87
2019-05-22T21:16:35.938Z,7.33
2019-05-22T21:19:05.855Z,8.47
2019-05-22T21:21:40.181Z,8.20
2019-05-22T21:24:16.492Z,6.57
2019-05-22T21:26:45.694Z,8.27
2019-05-22T21:29:13.748Z,7.60
2019-05-22T21:31:47.484Z,6.73
2019-05-22T21:34:15.623Z,11.13
2019-05-22T21:36:49.399Z,10.93
2019-05-22T21:39:19.244Z,8.60
2019-05-22T21:41:49.787Z,8.07
2019-05-22T21:44:18.035Z,10.43
2019-05-22T21:46:49.664Z,10.10
2019-05-22T21:49:18.620Z,7.87
2019-05-22T21:51:46.364Z,9.00
2019-05-22T21:54:24.194Z,9.07
2019-05-22T21:56:58.484Z,9.20
2019-05-22T21:59:27.373Z,12.43
2019-05-22T22:02:13.270Z,9.43
2019-05-22T22:04:53.453Z,9.97
2019-05-22T22:07:22.934Z,8.97
2019-05-22T22:09:52.028Z,10.97
2019-05-22T22:12:24.359Z,9.30
2019-05-22T22:14:55.115Z,7.40
2019-05-22T22:17:24.738Z,9.50
2019-05-22T22:24:02.070Z,11.13
2019-05-22T22:26:33.079Z,10.23
2019-05-22T22:29:11.213Z,11.27
2019-05-22T22:31:56.199Z,11.20
2019-05-22T22:34:44.048Z,11.10
2019-05-22T22:37:34.955Z,13.23
2019-05-22T22:40:24.275Z,9.50
2019-05-22T22:42:53.852Z,8.67
2019-05-22T22:45:49.074Z,11.53
2019-05-22T22:48:20.295Z,10.40
2019-05-22T22:50:50.515Z,12.03
2019-05-22T22:53:21.028Z,11.33
2019-05-22T22:55:49.054Z,10.80
2019-05-22T22:58:20.962Z,12.70
2019-05-22T23:00:52.269Z,11.10
2019-05-22T23:03:23.960Z,14.80
2019-05-22T23:05:52.097Z,10.17
2019-05-22T23:08:25.130Z,11.20
2019-05-22T23:10:54.278Z,14.27
2019-05-22T23:13:23.042Z,11.50
2019-05-22T23:15:54.019Z,14.93
2019-05-22T23:19:10.754Z,12.80
2019-05-22T23:21:37.462Z,13.80
2019-05-22T23:24:04.618Z,11.07
2019-05-22T23:26:33.125Z,13.47
2019-05-22T23:29:01.022Z,12.13
2019-05-22T23:31:28.685Z,9.93
2019-05-22T23:33:57.691Z,10.13
2019-05-22T23:36:25.886Z,13.10
2019-05-22T23:38:53.911Z,11.70
2019-05-22T23:41:23.518Z,11.87
2019-05-22T23:43:55.097Z,15.23
2019-05-22T23:46:25.748Z,10.80
2019-05-22T23:48:54.829Z,12.80
2019-05-22T23:51:22.792Z,16.67
2019-05-22T23:53:50.432Z,30.13
2019-05-22T23:56:19.516Z,32.43
2019-05-22T23:58:53.418Z,18.53
